Time;durP1;ratioP1;P1;durP2;ratioP2;P2;SDS_P1;SDS_P2;PMS_P1;PMS_P2;Temp;Humidity;BMP_temperature;BMP_pressure;BME280_temperature;BME280_humidity;BME280_pressure;Samples;Min_cycle;Max_cycle;Signal;HPM_P1;HPM_P2
2021/11/20 00:00:30;;;;;;;9.18;6.82;;;;;;;9.51;100.00;99394.63;10397210;28;20049;-62
2021/11/20 00:05:38;;;;;;;14.10;7.20;;;;;;;9.56;100.00;99398.63;10390093;28;20410;-61
2021/11/20 00:10:47;;;;;;;11.25;7.32;;;;;;;9.63;100.00;99403.47;10399421;28;20512;-60
2021/11/20 00:15:55;;;;;;;14.65;7.75;;;;;;;9.57;100.00;99396.78;10414553;28;20080;-63
2021/11/20 00:21:02;;;;;;;13.63;7.78;;;;;;;9.58;100.00;99393.09;10478678;28;20044;-60
2021/11/20 00:26:12;;;;;;;13.32;7.60;;;;;;;9.62;100.00;99391.88;10485513;28;20047;-63
2021/11/20 00:31:17;;;;;;;14.70;7.65;;;;;;;9.61;100.00;99394.66;10482075;28;20164;-61
2021/11/20 00:36:22;;;;;;;11.63;7.47;;;;;;;9.64;100.00;99397.09;10451314;28;20047;-60
2021/11/20 00:41:33;;;;;;;10.07;6.63;;;;;;;9.59;100.00;99369.72;10465119;28;20076;-64
2021/11/20 00:46:38;;;;;;;9.40;6.60;;;;;;;9.58;100.00;99376.13;10484912;28;20049;-61
2021/11/20 00:51:42;;;;;;;12.45;6.38;;;;;;;9.60;100.00;99383.06;10503042;28;20119;-60
2021/11/20 00:56:48;;;;;;;11.18;6.13;;;;;;;9.59;100.00;99380.50;10477186;28;20057;-62
2021/11/20 01:01:53;;;;;;;11.23;6.90;;;;;;;9.62;100.00;99374.84;10475572;28;20080;-60
2021/11/20 01:06:57;;;;;;;11.15;7.20;;;;;;;9.62;100.00;99378.41;10468202;28;20041;-61
2021/11/20 01:12:06;;;;;;;10.80;7.55;;;;;;;9.59;100.00;99375.09;10468837;28;20074;-60
2021/11/20 01:17:14;;;;;;;11.85;6.57;;;;;;;9.58;100.00;99376.13;10480293;28;20074;-62
2021/11/20 01:22:20;;;;;;;9.63;6.53;;;;;;;9.63;100.00;99376.56;10458235;28;20139;-61
2021/11/20 01:27:45;;;;;;;14.50;7.80;;;;;;;9.63;100.00;99376.56;10481875;28;20056;-62
2021/11/20 01:33:08;;;;;;;12.75;7.82;;;;;;;9.61;100.00;99368.63;10477913;28;20431;-60
2021/11/20 01:38:12;;;;;;;16.02;8.77;;;;;;;9.67;100.00;99351.09;10458188;28;20044;-59
2021/11/20 01:43:20;;;;;;;13.15;8.15;;;;;;;9.62;100.00;99358.72;10456394;28;20041;-60
2021/11/20 01:48:38;;;;;;;14.65;8.15;;;;;;;9.63;100.00;99358.59;10451644;28;20044;-62
2021/11/20 01:53:47;;;;;;;12.48;8.25;;;;;;;9.65;100.00;99348.53;10456420;28;20068;-62
2021/11/20 01:59:00;;;;;;;14.93;10.23;;;;;;;9.64;100.00;99351.38;10464048;28;20065;-63
2021/11/20 02:04:31;;;;;;;14.23;7.80;;;;;;;9.62;100.00;99348.81;10477835;28;20053;-60
2021/11/20 02:09:38;;;;;;;14.35;7.22;;;;;;;9.56;100.00;99349.31;10456344;28;20866;-61
2021/11/20 02:14:54;;;;;;;11.93;6.75;;;;;;;9.55;100.00;99348.50;10456149;28;20083;-63
2021/11/20 02:20:06;;;;;;;14.40;7.90;;;;;;;9.52;100.00;99347.91;10452769;28;20048;-62
2021/11/20 02:25:11;;;;;;;10.02;7.20;;;;;;;9.52;100.00;99323.69;10446330;28;20456;-60
2021/11/20 02:30:37;;;;;;;12.32;8.25;;;;;;;9.49;100.00;99322.09;10460774;28;20041;-63
2021/11/20 02:35:44;;;;;;;13.65;8.20;;;;;;;9.43;100.00;99317.25;10459043;28;20049;-62
2021/11/20 02:40:49;;;;;;;15.35;8.65;;;;;;;9.41;100.00;99313.84;10468689;28;20078;-60
2021/11/20 02:45:57;;;;;;;12.98;8.90;;;;;;;9.39;100.00;99321.19;10459831;28;20138;-61
2021/11/20 02:51:06;;;;;;;10.82;8.27;;;;;;;9.43;100.00;99319.94;10449436;28;20471;-61
2021/11/20 02:56:13;;;;;;;12.10;9.43;;;;;;;9.44;100.00;99320.78;10453811;28;20516;-60
2021/11/20 03:01:21;;;;;;;12.65;8.98;;;;;;;9.43;100.00;99314.56;10456816;28;20049;-63
2021/11/20 03:06:24;;;;;;;15.77;9.65;;;;;;;9.43;100.00;99311.00;10452189;28;20489;-61
2021/11/20 03:11:28;;;;;;;16.88;10.38;;;;;;;9.39;100.00;99310.44;10456293;28;20109;-61
2021/11/20 03:16:33;;;;;;;16.30;9.40;;;;;;;9.37;100.00;99296.25;10468342;28;20048;-60
2021/11/20 03:21:37;;;;;;;14.75;10.50;;;;;;;9.39;100.00;99305.06;10456997;28;20515;-61
2021/11/20 03:26:41;;;;;;;16.42;10.52;;;;;;;9.40;100.00;99306.75;10480469;28;20044;-61
2021/11/20 03:31:52;;;;;;;15.80;8.70;;;;;;;9.40;100.00;99304.06;10447694;28;20500;-61
2021/11/20 03:36:56;;;;;;;14.15;9.63;;;;;;;9.36;100.00;99289.16;10459869;28;20045;-61
2021/11/20 03:42:06;;;;;;;15.35;10.25;;;;;;;9.34;100.00;99291.16;10464478;28;20094;-61
2021/11/20 03:47:15;;;;;;;16.95;11.23;;;;;;;9.25;100.00;99296.31;10463903;28;20044;-60
2021/11/20 03:52:20;;;;;;;19.58;10.05;;;;;;;9.32;100.00;99298.50;10447945;28;20366;-60
2021/11/20 03:57:24;;;;;;;16.20;10.73;;;;;;;9.32;100.00;99293.13;10460661;28;20064;-61
2021/11/20 04:02:28;;;;;;;14.02;9.98;;;;;;;9.37;100.00;99298.94;10447879;28;20140;-60
2021/11/20 04:07:33;;;;;;;17.13;10.40;;;;;;;9.37;100.00;99294.44;10451083;28;20059;-60
2021/11/20 04:12:38;;;;;;;17.23;10.80;;;;;;;9.33;100.00;99284.06;10453546;28;20053;-64
2021/11/20 04:17:42;;;;;;;19.20;11.57;;;;;;;9.33;100.00;99289.47;10453113;28;20175;-61
2021/11/20 04:22:46;;;;;;;16.42;11.52;;;;;;;9.30;100.00;99284.34;10458124;28;20135;-60
2021/11/20 04:27:50;;;;;;;16.77;11.07;;;;;;;9.31;100.00;99278.81;10453781;28;20104;-61
2021/11/20 04:33:18;;;;;;;21.83;11.80;;;;;;;9.29;100.00;99290.69;10452793;28;20535;-60
2021/11/20 04:38:21;;;;;;;15.68;11.88;;;;;;;9.30;100.00;99285.19;10448897;28;20076;-61
2021/11/20 04:43:25;;;;;;;16.92;11.48;;;;;;;9.31;100.00;99286.03;10448923;28;20127;-60
2021/11/20 04:48:30;;;;;;;17.35;12.00;;;;;;;9.25;100.00;99282.88;10445089;28;20127;-61
2021/11/20 04:53:38;;;;;;;14.90;11.20;;;;;;;9.28;100.00;99275.53;10450875;28;20048;-61
2021/11/20 04:58:43;;;;;;;14.70;10.27;;;;;;;9.27;100.00;99274.69;10448707;28;20135;-62
2021/11/20 05:03:51;;;;;;;16.25;10.15;;;;;;;9.23;100.00;99268.72;10449563;28;20091;-62
2021/11/20 05:08:59;;;;;;;16.48;11.43;;;;;;;9.18;100.00;99262.91;10468255;28;20080;-62
2021/11/20 05:14:05;;;;;;;17.52;10.57;;;;;;;9.18;100.00;99275.47;10449618;28;20052;-60
2021/11/20 05:19:09;;;;;;;20.05;11.68;;;;;;;9.18;100.00;99268.28;10459468;28;20401;-62
2021/11/20 05:24:19;;;;;;;19.63;12.25;;;;;;;9.13;100.00;99272.34;10490983;28;20032;-62
2021/11/20 05:29:30;;;;;;;19.05;13.25;;;;;;;9.10;100.00;99268.91;10493926;28;20563;-64
2021/11/20 05:34:37;;;;;;;21.73;13.75;;;;;;;9.11;100.00;99264.41;10485557;28;20029;-61
2021/11/20 05:39:41;;;;;;;19.23;14.75;;;;;;;9.13;100.00;99262.41;10467790;28;20056;-64
2021/11/20 05:44:44;;;;;;;21.40;14.68;;;;;;;9.12;100.00;99255.34;10468362;28;20045;-63
2021/11/20 05:49:52;;;;;;;19.92;15.52;;;;;;;9.09;100.00;99258.31;10458031;28;20098;-61
2021/11/20 05:54:56;;;;;;;24.00;15.32;;;;;;;9.09;100.00;99255.63;10459882;28;20492;-62
2021/11/20 06:00:12;;;;;;;22.67;15.07;;;;;;;9.08;100.00;99257.44;10464450;28;20051;-61
2021/11/20 06:05:33;;;;;;;23.02;15.65;;;;;;;9.05;100.00;99259.53;10459984;28;20057;-62
2021/11/20 06:10:39;;;;;;;28.15;17.48;;;;;;;9.04;100.00;99260.53;10463186;28;20058;-59
2021/11/20 06:15:44;;;;;;;25.67;17.85;;;;;;;9.01;100.00;99266.16;10444471;28;20070;-63
2021/11/20 06:20:52;;;;;;;24.42;17.60;;;;;;;9.02;100.00;99265.19;10442461;28;20072;-61
2021/11/20 06:26:00;;;;;;;23.25;16.58;;;;;;;9.03;100.00;99262.38;10447833;28;20071;-62
2021/11/20 06:31:05;;;;;;;23.20;15.77;;;;;;;9.05;100.00;99267.59;10454098;28;20052;-63
2021/11/20 06:36:13;;;;;;;25.20;15.63;;;;;;;9.07;100.00;99271.88;10458770;28;20037;-61
2021/11/20 06:41:22;;;;;;;25.85;17.55;;;;;;;9.03;100.00;99277.63;10458936;28;20424;-61
2021/11/20 06:46:25;;;;;;;25.85;16.70;;;;;;;9.01;100.00;99276.91;10465291;28;20405;-62
2021/11/20 06:51:32;;;;;;;20.35;15.02;;;;;;;9.05;100.00;99267.59;10470154;28;20055;-62
2021/11/20 06:57:03;;;;;;;27.45;14.77;;;;;;;9.06;100.00;99277.38;10488828;28;20052;-62
2021/11/20 07:02:12;;;;;;;24.30;16.17;;;;;;;9.07;100.00;99279.09;10477244;28;20049;-64
2021/11/20 07:07:19;;;;;;;21.50;16.23;;;;;;;9.05;100.00;99287.31;10455916;28;20047;-63
2021/11/20 07:12:23;;;;;;;28.88;17.42;;;;;;;9.05;100.00;99289.97;10474291;28;20045;-62
2021/11/20 07:17:26;;;;;;;25.42;16.80;;;;;;;9.02;100.00;99281.31;10455403;28;20079;-63
2021/11/20 07:22:50;;;;;;;24.92;17.30;;;;;;;9.00;100.00;99288.63;10467951;28;20053;-63
2021/11/20 07:27:54;;;;;;;23.90;16.60;;;;;;;8.98;100.00;99287.94;10449050;28;20099;-62
2021/11/20 07:32:58;;;;;;;21.42;14.90;;;;;;;9.03;100.00;99289.25;10445440;28;20102;-62
2021/11/20 07:38:05;;;;;;;22.40;15.15;;;;;;;9.03;100.00;99278.50;10452695;28;20061;-62
2021/11/20 07:43:09;;;;;;;22.73;14.80;;;;;;;9.05;100.00;99287.31;10439320;28;20498;-62
2021/11/20 07:48:41;;;;;;;21.35;14.27;;;;;;;9.06;100.00;99288.13;10448175;28;20592;-59
2021/11/20 07:53:50;;;;;;;21.85;14.85;;;;;;;9.05;100.00;99295.38;10451231;28;20045;-59
2021/11/20 07:58:57;;;;;;;21.00;15.65;;;;;;;9.08;100.00;99297.75;10460564;28;20052;-60
2021/11/20 08:04:01;;;;;;;21.50;14.55;;;;;;;9.08;100.00;99286.19;10461230;28;20048;-59
2021/11/20 08:09:21;;;;;;;24.48;16.00;;;;;;;9.07;100.00;99279.94;10475141;28;20044;-59
2021/11/20 08:14:33;;;;;;;20.08;15.40;;;;;;;9.10;100.00;99268.09;10480387;28;20059;-58
2021/11/20 08:19:36;;;;;;;21.73;16.42;;;;;;;9.10;100.00;99270.78;10477180;28;20879;-60
2021/11/20 08:24:48;;;;;;;25.15;17.98;;;;;;;9.09;100.00;99266.38;10463680;28;20194;-61
2021/11/20 08:29:51;;;;;;;22.33;17.10;;;;;;;9.09;100.00;99264.53;10452867;28;20097;-60
2021/11/20 08:34:56;;;;;;;23.50;16.75;;;;;;;9.09;100.00;99256.47;10456042;28;20052;-60
2021/11/20 08:40:25;;;;;;;17.55;13.27;;;;;;;9.08;100.00;99253.91;10449429;28;20404;-60
2021/11/20 08:45:34;;;;;;;17.27;12.50;;;;;;;9.08;100.00;99249.38;10451756;28;20041;-61
2021/11/20 08:50:40;;;;;;;15.27;12.32;;;;;;;9.10;100.00;99251.97;10449846;28;20107;-60
2021/11/20 08:55:45;;;;;;;19.23;13.20;;;;;;;9.08;100.00;99254.75;10447883;28;20040;-61
2021/11/20 09:01:10;;;;;;;22.98;15.73;;;;;;;9.07;100.00;99252.22;10445984;28;20110;-60
2021/11/20 09:06:29;;;;;;;24.13;15.63;;;;;;;9.05;100.00;99246.09;10459279;28;20059;-59
2021/11/20 09:11:37;;;;;;;23.75;15.50;;;;;;;9.00;100.00;99245.63;10446416;28;20128;-61
2021/11/20 09:16:42;;;;;;;23.08;16.23;;;;;;;8.96;100.00;99241.53;10450770;28;20053;-61
2021/11/20 09:21:45;;;;;;;23.02;16.45;;;;;;;8.96;100.00;99249.59;10442829;28;20588;-61
2021/11/20 09:27:19;;;;;;;24.35;17.25;;;;;;;8.92;100.00;99244.47;10439679;28;20041;-60
2021/11/20 09:32:24;;;;;;;21.10;16.42;;;;;;;8.88;100.00;99243.00;10447241;28;20454;-62
2021/11/20 09:37:37;;;;;;;23.85;16.48;;;;;;;8.87;100.00;99230.59;10436155;28;20213;-61
2021/11/20 09:42:50;;;;;;;;;;;;;;;8.77;100.00;99230.50;10437056;28;20143;-58
2021/11/20 09:47:56;;;;;;;24.83;17.17;;;;;;;8.75;100.00;99219.03;10434318;28;20359;-60
2021/11/20 09:53:00;;;;;;;23.17;17.08;;;;;;;8.75;100.00;99212.81;10438282;28;20045;-60
2021/11/20 09:58:09;;;;;;;29.13;18.70;;;;;;;8.75;100.00;99205.59;10457895;28;20553;-58
2021/11/20 10:03:31;;;;;;;28.20;18.55;;;;;;;8.74;100.00;99203.88;10470699;28;20363;-59
2021/11/20 10:08:38;;;;;;;27.23;17.92;;;;;;;8.74;100.00;99198.50;10475875;28;20090;-59
2021/11/20 10:13:56;;;;;;;26.17;16.92;;;;;;;8.74;100.00;99200.34;10476745;28;20044;-61
2021/11/20 10:19:07;;;;;;;23.85;16.75;;;;;;;8.76;100.00;99191.19;10473087;28;20052;-60
2021/11/20 10:24:18;;;;;;;24.38;15.95;;;;;;;8.75;100.00;99188.63;10472640;28;20067;-60
2021/11/20 10:29:53;;;;;;;22.42;15.75;;;;;;;8.75;100.00;99181.41;10466066;28;20040;-62
2021/11/20 10:34:58;;;;;;;25.27;15.95;;;;;;;8.78;100.00;99169.53;10448589;28;20556;-61
2021/11/20 10:40:07;;;;;;;23.30;15.63;;;;;;;8.79;100.00;99163.19;10469366;28;20128;-63
2021/11/20 10:45:16;;;;;;;21.15;14.57;;;;;;;8.83;100.00;99153.03;10467242;28;20441;-63
2021/11/20 10:50:32;;;;;;;20.70;13.60;;;;;;;8.82;100.00;99146.81;10462753;28;20067;-62
2021/11/20 10:55:41;;;;;;;19.42;13.38;;;;;;;8.84;100.00;99139.47;10459871;28;20107;-62
2021/11/20 11:01:32;;;;;;;20.38;13.93;;;;;;;8.91;100.00;99129.88;10459960;28;20047;-63
2021/11/20 11:06:56;;;;;;;16.58;12.85;;;;;;;8.96;100.00;99123.28;10458609;28;20044;-62
2021/11/20 11:12:05;;;;;;;19.40;13.65;;;;;;;9.02;100.00;99106.59;10455140;28;20041;-63
2021/11/20 11:17:16;;;;;;;19.95;14.93;;;;;;;9.04;100.00;99093.88;10455776;28;20125;-61
2021/11/20 11:22:24;;;;;;;19.27;14.63;;;;;;;9.06;100.00;99090.06;10450855;28;20068;-63
2021/11/20 11:27:35;;;;;;;18.40;14.45;;;;;;;9.10;100.00;99085.28;10468882;28;20548;-57
2021/11/20 11:32:41;;;;;;;16.00;12.23;;;;;;;9.12;100.00;99072.53;10467895;28;20045;-62
2021/11/20 11:38:04;;;;;;;13.23;9.32;;;;;;;9.14;100.00;99067.03;10451946;28;20505;-58
2021/11/20 11:43:17;;;;;;;13.43;10.40;;;;;;;9.22;100.00;99040.31;10465486;28;20076;-63
2021/11/20 11:49:05;;;;;;;11.50;9.35;;;;;;;9.28;100.00;99039.78;10456356;28;20041;-60
2021/11/20 11:54:25;;;;;;;12.80;9.13;;;;;;;9.24;100.00;99023.06;10468268;28;20037;-60
2021/11/20 11:59:51;;;;;;;13.77;9.45;;;;;;;9.32;100.00;99005.41;10468561;28;20509;-61
2021/11/20 12:04:57;;;;;;;14.07;10.15;;;;;;;9.30;100.00;99004.69;10469910;28;20416;-65
2021/11/20 12:10:24;;;;;;;11.43;9.10;;;;;;;9.31;100.00;98990.25;10458548;28;20055;-60
2021/11/20 12:15:34;;;;;;;13.52;9.45;;;;;;;9.36;100.00;98986.16;10458658;28;20114;-61
2021/11/20 12:20:46;;;;;;;14.07;10.77;;;;;;;9.39;100.00;98983.19;10475913;28;20529;-62
2021/11/20 12:25:57;;;;;;;13.85;10.35;;;;;;;9.41;100.00;98969.59;10467350;28;20139;-62
2021/11/20 12:31:40;;;;;;;13.50;10.10;;;;;;;9.43;100.00;98950.63;10455097;28;20514;-62
2021/11/20 12:37:00;;;;;;;18.75;9.57;;;;;;;9.47;100.00;98936.75;10458116;28;20063;-60
2021/11/20 12:42:17;;;;;;;15.23;10.10;;;;;;;9.50;100.00;98919.50;10467686;28;20396;-61
2021/11/20 12:47:46;;;;;;;13.70;10.65;;;;;;;9.53;100.00;98922.75;10466293;28;20386;-60
2021/11/20 12:52:56;;;;;;;15.55;10.57;;;;;;;9.54;100.00;98908.31;10444086;28;20059;-61
2021/11/20 12:58:10;;;;;;;13.98;10.07;;;;;;;9.54;100.00;98899.38;10460223;28;20064;-62
2021/11/20 13:03:34;;;;;;;13.35;9.48;;;;;;;9.54;100.00;98900.22;10462515;28;20505;-62
2021/11/20 13:08:42;;;;;;;14.82;10.10;;;;;;;9.58;100.00;98895.41;10462791;28;20041;-62
2021/11/20 13:13:50;;;;;;;14.98;9.48;;;;;;;9.58;100.00;98878.44;10460881;28;20528;-61
2021/11/20 13:19:16;;;;;;;10.82;8.23;;;;;;;9.51;100.00;98865.53;10448119;28;20048;-62
2021/11/20 13:24:23;;;;;;;11.95;8.52;;;;;;;9.51;100.00;98865.53;10463325;28;20132;-61
2021/11/20 13:29:31;;;;;;;10.65;7.30;;;;;;;9.48;100.00;98852.38;10463391;28;20060;-62
2021/11/20 13:34:34;;;;;;;10.20;7.88;;;;;;;9.45;100.00;98843.75;10443305;28;20081;-62
2021/11/20 13:39:37;;;;;;;10.13;7.80;;;;;;;9.43;100.00;98827.78;10462377;28;20059;-60
2021/11/20 13:44:42;;;;;;;11.00;7.60;;;;;;;9.41;100.00;98838.66;10462344;28;20095;-61
2021/11/20 13:49:55;;;;;;;13.40;10.48;;;;;;;9.39;100.00;98821.84;10455708;28;20053;-61
2021/11/20 13:55:01;;;;;;;17.27;9.60;;;;;;;9.39;100.00;98823.66;10473295;28;20048;-61
2021/11/20 14:00:10;;;;;;;12.13;10.30;;;;;;;9.40;100.00;98817.28;10470615;28;20431;-62
2021/11/20 14:05:20;;;;;;;12.50;9.40;;;;;;;9.35;100.00;98816.91;10467399;28;20413;-62
2021/11/20 14:10:30;;;;;;;13.65;9.23;;;;;;;9.31;100.00;98808.25;10472596;28;20124;-62
2021/11/20 14:15:49;;;;;;;15.13;9.85;;;;;;;9.29;100.00;98804.00;10441334;28;20409;-62
2021/11/20 14:20:57;;;;;;;12.13;9.40;;;;;;;9.24;100.00;98794.53;10467135;28;20041;-62
2021/11/20 14:26:08;;;;;;;12.52;10.02;;;;;;;9.17;100.00;98787.19;10473175;28;20123;-62
2021/11/20 14:31:14;;;;;;;15.25;10.88;;;;;;;9.11;100.00;98783.25;10470204;28;20127;-62
2021/11/20 14:36:18;;;;;;;14.45;10.57;;;;;;;9.09;100.00;98774.47;10448064;28;20509;-63
2021/11/20 14:41:21;;;;;;;15.85;10.52;;;;;;;9.07;100.00;98766.53;10452192;28;20071;-62
2021/11/20 14:46:25;;;;;;;16.30;11.35;;;;;;;9.03;100.00;98761.59;10466161;28;20037;-61
2021/11/20 14:51:36;;;;;;;16.30;11.70;;;;;;;8.98;100.00;98764.72;10468271;28;20862;-63
2021/11/20 14:56:39;;;;;;;18.10;11.00;;;;;;;8.92;100.00;98750.00;10465670;28;20429;-61
2021/11/20 15:01:44;;;;;;;14.77;11.25;;;;;;;8.88;100.00;98737.84;10474021;28;20138;-63
2021/11/20 15:06:50;;;;;;;16.90;11.57;;;;;;;8.81;100.00;98731.34;10455250;28;20085;-63
2021/11/20 15:11:54;;;;;;;16.48;12.10;;;;;;;8.77;100.00;98727.25;10470018;28;20036;-63
2021/11/20 15:16:58;;;;;;;16.42;12.07;;;;;;;8.74;100.00;98719.47;10449041;28;20076;-61
2021/11/20 15:22:02;;;;;;;17.60;12.43;;;;;;;8.73;100.00;98718.63;10448293;28;20071;-62
2021/11/20 15:27:07;;;;;;;21.77;12.73;;;;;;;8.68;100.00;98710.16;10474185;28;20045;-62
2021/11/20 15:32:11;;;;;;;18.33;12.85;;;;;;;8.68;100.00;98703.91;10456558;28;20045;-61
2021/11/20 15:37:14;;;;;;;16.10;12.07;;;;;;;8.62;100.00;98708.88;10476762;28;20065;-61
2021/11/20 15:42:17;;;;;;;19.73;12.75;;;;;;;8.58;100.00;98695.88;10475721;28;20082;-62
2021/11/20 15:47:22;;;;;;;13.85;11.43;;;;;;;8.57;100.00;98700.41;10477377;28;20053;-61
2021/11/20 15:52:25;;;;;;;15.30;11.68;;;;;;;8.52;100.00;98683.88;10477783;28;20128;-62
2021/11/20 15:57:29;;;;;;;16.73;12.80;;;;;;;8.51;100.00;98682.19;10443489;28;20135;-60
2021/11/20 16:02:33;;;;;;;17.77;12.85;;;;;;;8.44;100.00;98670.25;10471622;28;20493;-61
2021/11/20 16:07:36;;;;;;;20.77;13.20;;;;;;;8.39;100.00;98672.53;10468560;28;20141;-62
2021/11/20 16:12:39;;;;;;;19.15;13.77;;;;;;;8.36;100.00;98662.06;10449500;28;20040;-61
2021/11/20 16:17:44;;;;;;;17.65;13.43;;;;;;;8.35;100.00;98650.47;10469511;28;20060;-59
2021/11/20 16:22:47;;;;;;;16.83;13.70;;;;;;;8.33;100.00;98653.31;10446455;28;20045;-60
2021/11/20 16:27:50;;;;;;;20.25;14.40;;;;;;;8.28;100.00;98644.84;10461176;28;20563;-61
2021/11/20 16:32:54;;;;;;;19.08;14.65;;;;;;;8.26;100.00;98640.59;10468237;28;20124;-62
2021/11/20 16:37:57;;;;;;;19.10;14.63;;;;;;;8.22;100.00;98628.47;10447546;28;20055;-60
2021/11/20 16:43:00;;;;;;;20.02;14.65;;;;;;;8.17;100.00;98623.50;10463124;28;20863;-61
2021/11/20 16:48:06;;;;;;;19.65;14.68;;;;;;;8.15;100.00;98617.44;10453584;28;20135;-62
2021/11/20 16:53:09;;;;;;;19.92;14.38;;;;;;;8.12;100.00;98615.03;10467681;28;20419;-61
2021/11/20 16:58:12;;;;;;;20.10;15.45;;;;;;;8.08;100.00;98597.50;10475228;28;20472;-62
2021/11/20 17:03:17;;;;;;;21.40;16.10;;;;;;;8.02;100.00;98599.78;10473433;28;20504;-62
2021/11/20 17:08:20;;;;;;;20.77;15.88;;;;;;;7.99;100.00;98607.25;10479932;28;20041;-62
2021/11/20 17:13:23;;;;;;;22.55;15.77;;;;;;;7.94;100.00;98591.56;10464307;28;20118;-62
2021/11/20 17:18:27;;;;;;;19.45;15.77;;;;;;;7.92;100.00;98590.88;10466022;28;20059;-61
2021/11/20 17:23:30;;;;;;;21.75;15.48;;;;;;;7.89;100.00;98579.56;10455553;28;20032;-61
2021/11/20 17:28:33;;;;;;;21.58;15.77;;;;;;;7.81;100.00;98581.13;10460126;28;20057;-62
2021/11/20 17:33:39;;;;;;;19.75;15.27;;;;;;;7.76;100.00;98580.66;10466264;28;20064;-57
2021/11/20 17:38:42;;;;;;;23.50;17.33;;;;;;;7.69;100.00;98590.28;10478746;28;20111;-63
2021/11/20 17:43:45;;;;;;;21.38;16.45;;;;;;;7.56;100.00;98574.44;10471189;28;20064;-60
2021/11/20 17:48:50;;;;;;;17.65;14.18;;;;;;;7.44;100.00;98567.50;10467356;28;20037;-58
2021/11/20 17:53:53;;;;;;;22.00;15.27;;;;;;;7.34;100.00;98568.34;10462956;28;20046;-59
2021/11/20 17:58:58;;;;;;;18.60;14.20;;;;;;;7.26;100.00;98573.53;10449596;28;20048;-61
2021/11/20 18:04:05;;;;;;;19.38;14.77;;;;;;;7.13;100.00;98576.44;10524631;28;20028;-63
2021/11/20 18:09:16;;;;;;;17.95;14.82;;;;;;;7.00;100.00;98571.31;10531043;28;20108;-61
2021/11/20 18:14:19;;;;;;;22.07;16.00;;;;;;;6.96;100.00;98556.50;10522942;28;20036;-61
2021/11/20 18:19:26;;;;;;;22.15;15.82;;;;;;;6.84;100.00;98552.22;10504757;28;20474;-63
2021/11/20 18:24:30;;;;;;;20.50;15.88;;;;;;;6.73;100.00;98556.69;10451443;28;20092;-62
2021/11/20 18:29:34;;;;;;;24.05;16.83;;;;;;;6.59;100.00;98544.47;10463188;28;20040;-62
2021/11/20 18:34:40;;;;;;;21.25;17.00;;;;;;;6.52;100.00;98531.78;10457338;28;20064;-61
2021/11/20 18:39:45;;;;;;;23.17;16.60;;;;;;;6.42;100.00;98527.22;10461970;28;20037;-62
2021/11/20 18:44:48;;;;;;;21.23;16.23;;;;;;;6.35;100.00;98518.03;10470713;28;20677;-62
2021/11/20 18:49:52;;;;;;;22.33;17.40;;;;;;;6.24;100.00;98512.75;10463747;28;20064;-61
2021/11/20 18:54:55;;;;;;;23.80;17.85;;;;;;;6.13;100.00;98505.63;10457161;28;20075;-63
2021/11/20 18:59:59;;;;;;;23.15;17.83;;;;;;;6.06;100.00;98499.13;10459653;28;20044;-63
2021/11/20 19:05:04;;;;;;;25.42;19.27;;;;;;;5.98;100.00;98497.06;10465319;28;20469;-61
2021/11/20 19:10:09;;;;;;;24.58;19.02;;;;;;;5.84;100.00;98479.53;10457394;28;20114;-62
2021/11/20 19:15:12;;;;;;;27.17;20.38;;;;;;;5.71;100.00;98469.84;10462883;28;20123;-62
2021/11/20 19:20:17;;;;;;;30.42;21.90;;;;;;;5.68;100.00;98463.94;10464703;28;20122;-62
2021/11/20 19:25:21;;;;;;;29.15;21.70;;;;;;;5.65;100.00;98454.31;10438482;28;20049;-61
2021/11/20 19:30:24;;;;;;;28.35;20.95;;;;;;;5.63;100.00;98444.75;10454753;28;20037;-60
2021/11/20 19:35:28;;;;;;;31.83;23.38;;;;;;;5.53;100.00;98424.16;10441586;28;20048;-62
2021/11/20 19:40:33;;;;;;;30.00;22.50;;;;;;;5.46;100.00;98422.97;10464525;28;20144;-62
2021/11/20 19:45:36;;;;;;;28.60;22.17;;;;;;;5.40;100.00;98407.44;10474725;28;20043;-62
2021/11/20 19:50:42;;;;;;;32.10;24.08;;;;;;;5.34;100.00;98413.31;10458499;28;20043;-62
2021/11/20 19:55:45;;;;;;;29.80;23.42;;;;;;;5.29;100.00;98411.03;10465381;28;20115;-63
2021/11/20 20:00:49;;;;;;;31.42;23.23;;;;;;;5.23;100.00;98406.19;10451626;28;20048;-63
2021/11/20 20:05:58;;;;;;;34.17;23.30;;;;;;;5.16;100.00;98400.50;10463218;28;20098;-62
2021/11/20 20:11:01;;;;;;;34.15;22.92;;;;;;;5.03;100.00;98394.47;10464566;28;20128;-62
2021/11/20 20:16:04;;;;;;;32.42;22.15;;;;;;;4.98;100.00;98402.03;10469438;28;20049;-61
2021/11/20 20:21:10;;;;;;;30.63;21.10;;;;;;;4.91;100.00;98394.50;10465525;28;20029;-61
2021/11/20 20:26:25;;;;;;;30.70;21.63;;;;;;;4.86;100.00;98393.19;10440588;28;20037;-63
2021/11/20 20:31:31;;;;;;;31.88;22.15;;;;;;;4.84;100.00;98398.69;10465293;28;20425;-62
2021/11/20 20:36:36;;;;;;;34.42;23.15;;;;;;;4.74;100.00;98389.72;10445521;28;20053;-61
2021/11/20 20:41:40;;;;;;;31.63;22.80;;;;;;;4.68;100.00;98390.22;10512676;28;20025;-61
2021/11/20 20:46:43;;;;;;;32.40;24.17;;;;;;;4.65;100.00;98385.13;10481650;28;20072;-62
2021/11/20 20:51:49;;;;;;;31.45;22.40;;;;;;;4.57;100.00;98383.94;10471857;28;20041;-62
2021/11/20 20:56:52;;;;;;;33.28;23.05;;;;;;;4.54;100.00;98373.50;10472531;28;20036;-62
2021/11/20 21:01:57;;;;;;;31.23;23.00;;;;;;;4.51;100.00;98371.09;10474710;28;20051;-61
2021/11/20 21:07:03;;;;;;;32.47;22.98;;;;;;;4.44;100.00;98367.22;10469745;28;20041;-61
2021/11/20 21:12:07;;;;;;;36.78;24.45;;;;;;;4.41;100.00;98354.16;10464312;28;20140;-61
2021/11/20 21:17:11;;;;;;;38.25;26.05;;;;;;;4.40;100.00;98345.28;10465004;28;20059;-60
2021/11/20 21:22:16;;;;;;;32.80;23.17;;;;;;;4.37;100.00;98340.19;10457265;28;20042;-61
2021/11/20 21:27:21;;;;;;;34.63;24.80;;;;;;;4.30;100.00;98331.81;10449378;28;20090;-62
2021/11/20 21:32:25;;;;;;;33.38;24.00;;;;;;;4.27;100.00;98313.44;10444015;28;20041;-62
2021/11/20 21:37:31;;;;;;;32.88;24.05;;;;;;;4.21;100.00;98316.56;10463890;28;20244;-62
2021/11/20 21:42:34;;;;;;;35.45;25.70;;;;;;;4.15;100.00;98312.59;10460691;28;20052;-61
2021/11/20 21:47:38;;;;;;;41.33;26.88;;;;;;;4.12;100.00;98306.66;10462829;28;20568;-63
2021/11/20 21:52:43;;;;;;;41.67;27.52;;;;;;;4.09;100.00;98305.09;10458839;28;20045;-62
2021/11/20 21:57:48;;;;;;;46.60;28.55;;;;;;;4.04;100.00;98303.75;10459277;28;20047;-62
2021/11/20 22:02:51;;;;;;;49.20;30.05;;;;;;;3.96;100.00;98294.53;10455950;28;20037;-62
2021/11/20 22:07:55;;;;;;;43.97;29.05;;;;;;;3.90;100.00;98287.06;10459312;28;20420;-60
2021/11/20 22:12:59;;;;;;;45.05;28.15;;;;;;;3.87;100.00;98287.28;10452962;28;20651;-62
2021/11/20 22:18:04;;;;;;;42.97;28.27;;;;;;;3.82;100.00;98281.50;10454263;28;20115;-62
2021/11/20 22:23:09;;;;;;;45.92;29.70;;;;;;;3.84;100.00;98282.19;10454807;28;20135;-62
2021/11/20 22:28:14;;;;;;;39.92;27.40;;;;;;;3.79;100.00;98263.91;10459778;28;20044;-60
2021/11/20 22:33:20;;;;;;;47.58;30.85;;;;;;;3.78;100.00;98266.72;10477900;28;20128;-62
2021/11/20 22:38:25;;;;;;;50.33;29.73;;;;;;;3.77;100.00;98244.53;10454679;28;20067;-61
2021/11/20 22:43:29;;;;;;;55.97;32.63;;;;;;;3.79;100.00;98244.41;10451987;28;20048;-62
2021/11/20 22:48:32;;;;;;;53.55;30.73;;;;;;;3.81;100.00;98247.81;10467879;28;20074;-61
2021/11/20 22:53:38;;;;;;;44.53;27.92;;;;;;;3.79;100.00;98228.44;10473985;28;20108;-61
2021/11/20 22:58:41;;;;;;;50.70;31.50;;;;;;;3.78;100.00;98221.41;10461424;28;20556;-63
2021/11/20 23:03:44;;;;;;;42.50;27.60;;;;;;;3.78;100.00;98221.41;10468278;28;20056;-62
2021/11/20 23:08:48;;;;;;;40.35;25.77;;;;;;;3.76;100.00;98218.88;10463441;28;20052;-62
2021/11/20 23:13:52;;;;;;;41.60;27.92;;;;;;;3.75;100.00;98218.97;10468282;28;20553;-63
2021/11/20 23:19:02;;;;;;;42.22;28.08;;;;;;;3.76;100.00;98210.03;10425173;28;20136;-60
2021/11/20 23:24:07;;;;;;;40.15;27.25;;;;;;;3.77;100.00;98198.41;10432996;28;20037;-62